Time,TemperatureF,DewpointF,PressureIn,WindDirection,WindDirectionDegrees,WindSpeedMPH,WindSpeedGustMPH,Humidity,HourlyPrecipIn,Conditions,Clouds,dailyrainin,SoftwareType,DateUTC
2013-04-07 00:02:00,28.0,21.0,30.26,NW,325,7.0,13.0,74,0.00,,,0.00,,2013-04-07 07:02:00,
2013-04-07 00:11:00,28.0,21.0,30.26,NW,325,7.0,13.0,74,0.00,,,0.00,,2013-04-07 07:11:00,
2013-04-07 00:21:00,28.0,21.0,30.25,NNW,334,6.0,12.0,74,0.00,,,0.00,,2013-04-07 07:21:00,
2013-04-07 00:32:00,28.0,20.0,30.25,NW,324,6.0,9.0,73,0.00,,,0.00,,2013-04-07 07:32:00,
2013-04-07 00:41:00,28.0,20.0,30.25,NW,324,6.0,9.0,73,0.00,,,0.00,,2013-04-07 07:41:00,
2013-04-07 00:52:00,28.0,20.0,30.24,NNW,340,7.0,9.0,73,0.00,,,0.00,,2013-04-07 07:52:00,
2013-04-07 01:01:00,28.0,20.0,30.24,NNW,334,7.0,12.0,73,0.00,,,0.00,,2013-04-07 08:01:00,
2013-04-07 01:11:00,29.0,21.0,30.23,NNW,345,5.0,9.0,73,0.00,,,0.00,,2013-04-07 08:11:00,
2013-04-07 01:22:00,29.0,21.0,30.23,NNW,345,5.0,9.0,73,0.00,,,0.00,,2013-04-07 08:22:00,
2013-04-07 01:32:00,29.0,21.0,30.23,NNW,334,6.0,9.0,71,0.00,,,0.00,,2013-04-07 08:32:00,
2013-04-07 01:42:00,29.0,21.0,30.23,NNW,334,6.0,9.0,71,0.00,,,0.00,,2013-04-07 08:42:00,
2013-04-07 01:52:00,29.0,20.0,30.22,NNW,327,6.0,12.0,69,0.00,,,0.00,,2013-04-07 08:52:00,
2013-04-07 02:01:00,29.0,21.0,30.22,NNW,337,7.0,10.0,71,0.00,,,0.00,,2013-04-07 09:01:00,
2013-04-07 02:11:00,29.0,21.0,30.22,NNW,337,7.0,10.0,71,0.00,,,0.00,,2013-04-07 09:11:00,
2013-04-07 02:21:00,29.0,21.0,30.22,NNW,335,8.0,12.0,72,0.00,,,0.00,,2013-04-07 09:21:00,
2013-04-07 02:33:00,29.0,21.0,30.20,NNW,327,7.0,11.0,72,0.00,,,0.00,,2013-04-07 09:33:00,
2013-04-07 02:42:00,29.0,21.0,30.20,NNW,327,7.0,11.0,72,0.00,,,0.00,,2013-04-07 09:42:00,
2013-04-07 02:53:00,28.0,20.0,30.20,NNW,328,7.0,12.0,71,0.00,,,0.00,,2013-04-07 09:53:00,
2013-04-07 03:02:00,28.0,20.0,30.20,NNW,328,6.0,12.0,70,0.00,,,0.00,,2013-04-07 10:02:00,
2013-04-07 03:12:00,28.0,20.0,30.20,NNW,328,6.0,12.0,70,0.00,,,0.00,,2013-04-07 10:12:00,
2013-04-07 03:22:00,28.0,18.0,30.20,NW,320,7.0,13.0,66,0.00,,,0.00,,2013-04-07 10:22:00,
2013-04-07 03:32:00,28.0,17.0,30.19,NW,320,6.0,12.0,63,0.00,,,0.00,,2013-04-07 10:32:00,
2013-04-07 03:42:00,28.0,17.0,30.19,NW,320,6.0,12.0,63,0.00,,,0.00,,2013-04-07 10:42:00,
2013-04-07 03:52:00,28.0,17.0,30.19,NW,321,6.0,13.0,64,0.00,,,0.00,,2013-04-07 10:52:00,
2013-04-07 04:02:00,28.0,18.0,30.19,NNW,336,7.0,10.0,65,0.00,,,0.00,,2013-04-07 11:02:00,
2013-04-07 04:11:00,28.0,18.0,30.19,NNW,336,7.0,10.0,65,0.00,,,0.00,,2013-04-07 11:11:00,
2013-04-07 04:21:00,28.0,19.0,30.19,NNW,338,9.0,11.0,69,0.00,,,0.00,,2013-04-07 11:21:00,
2013-04-07 04:32:00,28.0,19.0,30.19,NNW,341,10.0,15.0,68,0.00,,,0.00,,2013-04-07 11:32:00,
2013-04-07 04:42:00,28.0,19.0,30.19,NNW,341,10.0,15.0,68,0.00,,,0.00,,2013-04-07 11:42:00,
2013-04-07 04:52:00,28.0,18.0,30.19,NNW,340,11.0,15.0,65,0.00,,,0.00,,2013-04-07 11:52:00,
2013-04-07 05:02:00,28.0,16.0,30.19,NNW,342,10.0,14.0,60,0.00,,,0.00,,2013-04-07 12:02:00,
2013-04-07 05:12:00,28.0,16.0,30.19,NNW,342,10.0,14.0,60,0.00,,,0.00,,2013-04-07 12:12:00,
2013-04-07 05:21:00,28.0,16.0,30.20,NNW,338,9.0,14.0,60,0.00,,,0.00,,2013-04-07 12:21:00,
2013-04-07 05:32:00,29.0,17.0,30.20,NNW,335,10.0,14.0,60,0.00,,,0.00,,2013-04-07 12:32:00,
2013-04-07 05:53:00,29.0,17.0,30.20,NNW,343,9.0,14.0,60,0.00,,,0.00,,2013-04-07 12:53:00,
2013-04-07 06:02:00,29.0,16.0,30.20,NNW,346,10.0,15.0,59,0.00,,,0.00,,2013-04-07 13:02:00,
2013-04-07 06:12:00,29.0,16.0,30.20,NNW,346,10.0,15.0,59,0.00,,,0.00,,2013-04-07 13:12:00,
2013-04-07 06:22:00,29.0,16.0,30.20,NNW,347,11.0,14.0,57,0.00,,,0.00,,2013-04-07 13:22:00,
2013-04-07 06:31:00,29.0,15.0,30.21,NNW,344,12.0,18.0,55,0.00,,,0.00,,2013-04-07 13:31:00,
2013-04-07 06:52:00,29.0,14.0,30.21,NNW,343,12.0,16.0,54,0.00,,,0.00,,2013-04-07 13:52:00,
2013-04-07 07:01:00,30.0,15.0,30.21,North,349,13.0,18.0,52,0.00,,,0.00,,2013-04-07 14:01:00,
2013-04-07 07:11:00,30.0,15.0,30.21,North,349,13.0,18.0,52,0.00,,,0.00,,2013-04-07 14:11:00,
2013-04-07 07:22:00,30.0,15.0,30.22,North,360,15.0,24.0,52,0.00,,,0.00,,2013-04-07 14:22:00,
2013-04-07 07:32:00,30.0,15.0,30.22,North,5,13.0,19.0,52,0.00,,,0.00,,2013-04-07 14:32:00,
2013-04-07 07:53:00,30.0,15.0,30.22,NNW,344,11.0,18.0,54,0.00,,,0.00,,2013-04-07 14:53:00,
2013-04-07 08:02:00,30.0,15.0,30.23,North,351,12.0,17.0,54,0.00,,,0.00,,2013-04-07 15:02:00,
2013-04-07 08:12:00,30.0,15.0,30.22,North,354,9.0,17.0,54,0.00,,,0.00,,2013-04-07 15:12:00,
2013-04-07 08:21:00,30.0,15.0,30.22,North,354,9.0,17.0,54,0.00,,,0.00,,2013-04-07 15:21:00,
2013-04-07 08:32:00,31.0,16.0,30.23,North,1,9.0,13.0,54,0.00,,,0.00,,2013-04-07 15:32:00,
2013-04-07 08:43:00,31.0,16.0,30.23,North,1,9.0,13.0,54,0.00,,,0.00,,2013-04-07 15:43:00,
2013-04-07 08:53:00,31.0,16.0,30.24,North,11,9.0,12.0,54,0.00,,,0.00,,2013-04-07 15:53:00,
2013-04-07 09:02:00,32.0,16.0,30.24,NNW,345,6.0,11.0,51,0.00,,,0.00,,2013-04-07 16:02:00,
2013-04-07 09:12:00,32.0,16.0,30.24,NNW,345,6.0,11.0,51,0.00,,,0.00,,2013-04-07 16:12:00,
2013-04-07 09:23:00,33.0,16.0,30.24,NNW,334,7.0,10.0,49,0.00,,,0.00,,2013-04-07 16:23:00,
2013-04-07 09:32:00,33.0,19.0,30.24,NNW,329,4.0,9.0,55,0.00,,,0.00,,2013-04-07 16:32:00,
2013-04-07 09:42:00,33.0,19.0,30.24,NNW,329,4.0,9.0,55,0.00,,,0.00,,2013-04-07 16:42:00,
2013-04-07 09:53:00,34.0,18.0,30.24,NNW,339,5.0,7.0,51,0.00,,,0.00,,2013-04-07 16:53:00,
2013-04-07 10:02:00,34.0,19.0,30.24,NNW,333,4.0,7.0,53,0.00,,,0.00,,2013-04-07 17:02:00,
2013-04-07 10:12:00,34.0,19.0,30.24,NNW,333,4.0,7.0,53,0.00,,,0.00,,2013-04-07 17:12:00,
2013-04-07 10:22:00,35.0,19.0,30.25,NNW,335,2.0,7.0,52,0.00,,,0.00,,2013-04-07 17:22:00,
2013-04-07 10:32:00,36.0,14.0,30.26,NW,306,2.0,6.0,40,0.00,,,0.00,,2013-04-07 17:32:00,
2013-04-07 10:42:00,36.0,14.0,30.26,NW,306,2.0,6.0,40,0.00,,,0.00,,2013-04-07 17:42:00,
2013-04-07 10:53:00,36.0,15.0,30.26,NNW,344,4.0,7.0,42,0.00,,,0.00,,2013-04-07 17:53:00,
2013-04-07 11:02:00,35.0,19.0,30.26,WNW,285,1.0,8.0,51,0.00,,,0.00,,2013-04-07 18:02:00,
2013-04-07 11:12:00,35.0,19.0,30.26,WNW,285,1.0,8.0,51,0.00,,,0.00,,2013-04-07 18:12:00,
2013-04-07 11:22:00,36.0,19.0,30.26,WSW,240,2.0,10.0,50,0.00,,,0.00,,2013-04-07 18:22:00,
2013-04-07 11:32:00,37.0,20.0,30.26,SW,235,6.0,13.0,50,0.00,,,0.00,,2013-04-07 18:32:00,
2013-04-07 11:42:00,37.0,20.0,30.26,SW,235,6.0,13.0,50,0.00,,,0.00,,2013-04-07 18:42:00,
2013-04-07 11:52:00,36.0,20.0,30.26,West,259,8.0,15.0,51,0.00,,,0.00,,2013-04-07 18:52:00,
2013-04-07 12:01:00,37.0,20.0,30.26,SW,223,6.0,14.0,49,0.00,,,0.00,,2013-04-07 19:01:00,
2013-04-07 12:11:00,37.0,20.0,30.26,SW,223,6.0,14.0,49,0.00,,,0.00,,2013-04-07 19:11:00,
2013-04-07 12:21:00,37.0,21.0,30.26,West,265,7.0,16.0,51,0.00,,,0.00,,2013-04-07 19:21:00,
2013-04-07 12:31:00,37.0,21.0,30.25,WSW,254,10.0,16.0,52,0.00,,,0.00,,2013-04-07 19:31:00,
2013-04-07 12:42:00,37.0,21.0,30.25,WSW,254,10.0,16.0,52,0.00,,,0.00,,2013-04-07 19:42:00,
2013-04-07 12:53:00,37.0,22.0,30.24,SSW,197,10.0,19.0,54,0.00,,,0.00,,2013-04-07 19:53:00,
2013-04-07 13:02:00,39.0,24.0,30.23,SW,217,5.0,20.0,55,0.00,,,0.00,,2013-04-07 20:02:00,
2013-04-07 13:12:00,39.0,24.0,30.23,SW,217,5.0,20.0,55,0.00,,,0.00,,2013-04-07 20:12:00,
2013-04-07 13:22:00,39.0,24.0,30.23,SW,226,7.0,17.0,54,0.00,,,0.00,,2013-04-07 20:22:00,
2013-04-07 13:32:00,39.0,23.0,30.23,SSW,199,9.0,20.0,52,0.00,,,0.00,,2013-04-07 20:32:00,
2013-04-07 13:42:00,39.0,23.0,30.23,SSW,199,9.0,20.0,52,0.00,,,0.00,,2013-04-07 20:42:00,
2013-04-07 13:52:00,38.0,22.0,30.22,SW,220,10.0,17.0,53,0.00,,,0.00,,2013-04-07 20:52:00,
2013-04-07 14:02:00,40.0,20.0,30.22,SSW,211,12.0,25.0,45,0.00,,,0.00,,2013-04-07 21:02:00,
2013-04-07 14:11:00,40.0,20.0,30.22,SSW,211,12.0,25.0,45,0.00,,,0.00,,2013-04-07 21:11:00,
2013-04-07 14:22:00,38.0,18.0,30.22,West,260,13.0,30.0,44,0.00,,,0.00,,2013-04-07 21:22:00,
2013-04-07 14:33:00,40.0,19.0,30.21,WSW,245,13.0,22.0,43,0.00,,,0.00,,2013-04-07 21:33:00,
2013-04-07 14:42:00,40.0,19.0,30.21,WSW,245,13.0,22.0,43,0.00,,,0.00,,2013-04-07 21:42:00,
2013-04-07 14:53:00,37.0,18.0,30.22,West,273,13.0,23.0,46,0.00,,,0.00,,2013-04-07 21:53:00,
2013-04-07 15:02:00,38.0,19.0,30.21,West,271,11.0,29.0,45,0.00,,,0.00,,2013-04-07 22:02:00,
2013-04-07 15:12:00,38.0,19.0,30.21,West,271,11.0,29.0,45,0.00,,,0.00,,2013-04-07 22:12:00,
2013-04-07 15:22:00,37.0,17.0,30.20,West,266,19.0,31.0,44,0.00,,,0.00,,2013-04-07 22:22:00,
2013-04-07 15:32:00,38.0,19.0,30.20,WSW,258,10.0,23.0,45,0.00,,,0.00,,2013-04-07 22:32:00,
2013-04-07 15:42:00,38.0,19.0,30.20,WSW,258,10.0,23.0,45,0.00,,,0.00,,2013-04-07 22:42:00,
2013-04-07 15:53:00,37.0,18.0,30.19,West,266,17.0,27.0,46,0.00,,,0.00,,2013-04-07 22:53:00,
2013-04-07 16:02:00,37.0,21.0,30.20,West,262,14.0,28.0,51,0.00,,,0.00,,2013-04-07 23:02:00,
2013-04-07 16:12:00,37.0,21.0,30.20,West,262,14.0,28.0,51,0.00,,,0.00,,2013-04-07 23:12:00,
2013-04-07 16:22:00,38.0,20.0,30.18,SW,224,11.0,22.0,48,0.00,,,0.00,,2013-04-07 23:22:00,
2013-04-07 16:31:00,39.0,22.0,30.18,SW,231,10.0,25.0,50,0.00,,,0.00,,2013-04-07 23:31:00,
2013-04-07 16:42:00,39.0,22.0,30.18,SW,231,10.0,25.0,50,0.00,,,0.00,,2013-04-07 23:42:00,
2013-04-07 16:52:00,38.0,22.0,30.17,SSW,196,11.0,24.0,51,0.00,,,0.00,,2013-04-07 23:52:00,
2013-04-07 17:02:00,37.0,22.0,30.19,SW,227,11.0,22.0,54,0.00,,,0.00,,2013-04-08 00:02:00,
2013-04-07 17:12:00,37.0,22.0,30.19,SW,227,11.0,22.0,54,0.00,,,0.00,,2013-04-08 00:12:00,
2013-04-07 17:22:00,37.0,23.0,30.17,SW,216,12.0,25.0,56,0.00,,,0.00,,2013-04-08 00:22:00,
2013-04-07 17:32:00,36.0,22.0,30.17,SW,217,11.0,25.0,56,0.00,,,0.00,,2013-04-08 00:32:00,
2013-04-07 17:42:00,36.0,22.0,30.17,SW,217,11.0,25.0,56,0.00,,,0.00,,2013-04-08 00:42:00,
2013-04-07 17:52:00,36.0,23.0,30.17,SSW,212,11.0,24.0,59,0.00,,,0.00,,2013-04-08 00:52:00,
2013-04-07 18:01:00,34.0,23.0,30.17,SSW,211,8.0,22.0,63,0.00,,,0.00,,2013-04-08 01:01:00,
2013-04-07 18:11:00,34.0,23.0,30.17,SSW,211,8.0,22.0,63,0.00,,,0.00,,2013-04-08 01:11:00,
2013-04-07 18:22:00,34.0,23.0,30.17,SSW,203,8.0,17.0,64,0.00,,,0.00,,2013-04-08 01:22:00,
2013-04-07 18:32:00,34.0,23.0,30.17,SSW,210,11.0,18.0,65,0.00,,,0.00,,2013-04-08 01:32:00,
2013-04-07 18:42:00,34.0,23.0,30.17,SSW,210,11.0,18.0,65,0.00,,,0.00,,2013-04-08 01:42:00,
2013-04-07 18:54:00,34.0,23.0,30.16,SSW,197,13.0,19.0,64,0.00,,,0.00,,2013-04-08 01:54:00,
2013-04-07 19:01:00,33.0,23.0,30.14,SSW,200,9.0,16.0,66,0.00,,,0.00,,2013-04-08 02:01:00,
2013-04-07 19:12:00,33.0,23.0,30.14,SSW,200,9.0,16.0,66,0.00,,,0.00,,2013-04-08 02:12:00,
2013-04-07 19:21:00,32.0,22.0,30.14,SSW,203,10.0,19.0,67,0.00,,,0.00,,2013-04-08 02:21:00,
2013-04-07 19:32:00,31.0,22.0,30.13,SSW,201,10.0,16.0,68,0.00,,,0.00,,2013-04-08 02:32:00,
2013-04-07 19:42:00,31.0,22.0,30.13,SSW,201,10.0,16.0,68,0.00,,,0.00,,2013-04-08 02:42:00,
2013-04-07 19:53:00,31.0,22.0,30.12,SSW,197,9.0,20.0,69,0.00,,,0.00,,2013-04-08 02:53:00,
2013-04-07 20:02:00,31.0,22.0,30.13,SSW,197,9.0,17.0,70,0.00,,,0.00,,2013-04-08 03:02:00,
2013-04-07 20:12:00,31.0,22.0,30.13,SSW,197,9.0,17.0,70,0.00,,,0.00,,2013-04-08 03:12:00,
2013-04-07 20:22:00,30.0,21.0,30.13,SSW,201,11.0,18.0,70,0.00,,,0.00,,2013-04-08 03:22:00,
2013-04-07 20:32:00,30.0,22.0,30.12,SSW,194,10.0,16.0,71,0.00,,,0.00,,2013-04-08 03:32:00,
2013-04-07 20:42:00,30.0,22.0,30.12,SSW,194,10.0,16.0,71,0.00,,,0.00,,2013-04-08 03:42:00,
2013-04-07 20:53:00,30.0,22.0,30.13,South,187,9.0,19.0,71,0.00,,,0.00,,2013-04-08 03:53:00,
2013-04-07 21:02:00,29.0,21.0,30.12,South,187,12.0,18.0,72,0.00,,,0.00,,2013-04-08 04:02:00,
2013-04-07 21:12:00,29.0,21.0,30.12,South,187,12.0,18.0,72,0.00,,,0.00,,2013-04-08 04:12:00,
2013-04-07 21:23:00,29.0,21.0,30.12,South,184,9.0,15.0,72,0.00,,,0.00,,2013-04-08 04:23:00,
2013-04-07 21:32:00,29.0,21.0,30.11,South,190,11.0,20.0,72,0.00,,,0.00,,2013-04-08 04:32:00,
2013-04-07 21:43:00,29.0,21.0,30.11,South,190,11.0,20.0,72,0.00,,,0.00,,2013-04-08 04:43:00,
2013-04-07 21:52:00,29.0,21.0,30.11,SSW,195,12.0,19.0,73,0.00,,,0.00,,2013-04-08 04:52:00,
2013-04-07 22:02:00,29.0,21.0,30.11,South,190,11.0,18.0,73,0.00,,,0.00,,2013-04-08 05:02:00,
2013-04-07 22:11:00,29.0,21.0,30.11,South,190,11.0,18.0,73,0.00,,,0.00,,2013-04-08 05:11:00,
2013-04-07 22:21:00,29.0,21.0,30.11,South,190,11.0,18.0,73,0.00,,,0.00,,2013-04-08 05:21:00,
2013-04-07 22:31:00,28.0,22.0,30.11,SSW,198,12.0,22.0,77,0.00,,,0.00,,2013-04-08 05:31:00,
2013-04-07 22:42:00,28.0,22.0,30.10,South,189,13.0,22.0,79,0.00,,,0.00,,2013-04-08 05:42:00,
2013-04-07 22:52:00,28.0,22.0,30.10,South,189,13.0,22.0,79,0.00,,,0.00,,2013-04-08 05:52:00,
2013-04-07 23:02:00,28.0,23.0,30.09,SSW,192,15.0,24.0,80,0.00,,,0.00,,2013-04-08 06:02:00,
2013-04-07 23:12:00,27.0,22.0,30.07,South,188,16.0,24.0,81,0.00,,,0.00,,2013-04-08 06:12:00,
2013-04-07 23:21:00,27.0,22.0,30.07,South,188,16.0,24.0,81,0.00,,,0.00,,2013-04-08 06:21:00,
2013-04-07 23:32:00,27.0,22.0,30.06,South,188,18.0,27.0,80,0.00,,,0.00,,2013-04-08 06:32:00,
2013-04-07 23:42:00,27.0,22.0,30.06,South,188,18.0,27.0,80,0.00,,,0.00,,2013-04-08 06:42:00,
2013-04-07 23:52:00,28.0,22.0,30.06,South,189,17.0,26.0,79,0.00,,,0.00,,2013-04-08 06:52:00,